createdAt,value
2023-04-24T00:02:08.009Z,99.90
2023-04-24T00:04:35.480Z,99.90
2023-04-24T00:07:03.597Z,99.90
2023-04-24T00:09:30.829Z,99.90
2023-04-24T00:11:57.961Z,99.90
2023-04-24T00:14:25.105Z,99.90
2023-04-24T00:16:52.855Z,99.90
2023-04-24T00:19:22.371Z,99.90
2023-04-24T00:21:52.663Z,99.90
2023-04-24T00:24:19.807Z,99.90
2023-04-24T00:26:46.975Z,99.90
2023-04-24T00:29:14.302Z,99.90
2023-04-24T00:31:41.491Z,99.90
2023-04-24T00:34:08.854Z,99.90
2023-04-24T00:36:36.228Z,99.90
2023-04-24T00:39:03.479Z,99.90
2023-04-24T00:41:31.335Z,99.90
2023-04-24T00:43:58.452Z,99.90
2023-04-24T00:46:25.825Z,99.90
2023-04-24T00:48:53.362Z,99.90
2023-04-24T00:51:21.104Z,99.90
2023-04-24T00:53:52.152Z,99.90
2023-04-24T00:56:19.710Z,99.90
2023-04-24T00:58:47.074Z,99.90
2023-04-24T01:01:14.544Z,99.90
2023-04-24T01:03:42.515Z,99.90
2023-04-24T01:06:11.576Z,99.90
2023-04-24T01:08:40.883Z,99.90
2023-04-24T01:11:08.458Z,99.90
2023-04-24T01:13:35.847Z,99.90
2023-04-24T01:16:03.054Z,99.90
2023-04-24T01:18:30.277Z,99.90
2023-04-24T01:21:04.328Z,99.90
2023-04-24T01:23:31.628Z,99.90
2023-04-24T01:25:58.777Z,99.90
2023-04-24T01:28:25.928Z,99.90
2023-04-24T01:30:54.569Z,99.90
2023-04-24T01:33:23.466Z,99.90
2023-04-24T01:35:51.464Z,99.90
2023-04-24T01:38:18.494Z,99.90
2023-04-24T01:40:46.022Z,99.90
2023-04-24T01:43:14.028Z,99.90
2023-04-24T01:45:41.197Z,99.90
2023-04-24T01:48:08.431Z,99.90
2023-04-24T01:50:35.773Z,99.90
2023-04-24T01:53:02.999Z,99.90
2023-04-24T01:55:30.669Z,99.90
2023-04-24T01:57:57.980Z,99.90
2023-04-24T02:00:26.023Z,99.90
2023-04-24T02:02:53.278Z,99.90
2023-04-24T02:05:20.838Z,99.90
2023-04-24T02:07:48.124Z,99.90
2023-04-24T02:10:15.379Z,99.90
2023-04-24T02:12:42.460Z,99.90
2023-04-24T02:15:10.092Z,99.90
2023-04-24T02:17:37.548Z,99.90
2023-04-24T02:20:05.848Z,99.90
2023-04-24T02:22:32.877Z,99.90
2023-04-24T02:24:59.950Z,99.90
2023-04-24T02:27:27.124Z,99.90
2023-04-24T02:29:54.231Z,99.90
2023-04-24T02:32:21.346Z,99.90
2023-04-24T02:34:48.436Z,99.90
2023-04-24T02:37:15.922Z,99.90
2023-04-24T02:39:43.364Z,99.90
2023-04-24T02:42:11.325Z,99.90
2023-04-24T02:44:38.537Z,99.90
2023-04-24T02:47:05.942Z,99.90
2023-04-24T02:49:33.654Z,99.90
2023-04-24T02:52:01.006Z,99.90
2023-04-24T02:54:28.098Z,99.90
2023-04-24T02:56:55.296Z,99.90
2023-04-24T02:59:22.380Z,99.90
2023-04-24T03:01:49.729Z,99.90
2023-04-24T03:04:17.962Z,99.90
2023-04-24T03:06:45.305Z,99.90
2023-04-24T03:09:12.360Z,99.90
2023-04-24T03:11:39.409Z,99.90
2023-04-24T03:14:06.450Z,99.90
2023-04-24T03:16:34.189Z,99.90
2023-04-24T03:19:01.369Z,99.90
2023-04-24T03:21:28.706Z,99.90
2023-04-24T03:23:56.121Z,99.90
2023-04-24T03:26:23.371Z,99.90
2023-04-24T03:28:50.658Z,99.90
2023-04-24T03:31:17.848Z,99.90
2023-04-24T03:33:45.083Z,99.90
2023-04-24T03:36:12.154Z,99.90
2023-04-24T03:38:39.328Z,99.90
2023-04-24T03:41:06.561Z,99.90
2023-04-24T03:43:35.573Z,99.90
2023-04-24T03:46:03.238Z,99.90
2023-04-24T03:48:30.332Z,99.90
2023-04-24T03:50:57.622Z,99.90
2023-04-24T03:53:24.785Z,99.90
2023-04-24T03:55:51.997Z,99.90
2023-04-24T03:58:19.220Z,99.90
2023-04-24T04:00:48.762Z,99.90
2023-04-24T04:03:16.131Z,99.90
2023-04-24T04:05:43.687Z,99.90
2023-04-24T04:08:11.119Z,99.90
2023-04-24T04:10:38.331Z,99.90
2023-04-24T04:13:05.645Z,99.90
2023-04-24T04:15:32.823Z,99.90
2023-04-24T04:17:59.991Z,99.90
2023-04-24T04:20:27.433Z,99.90
2023-04-24T04:22:54.859Z,99.90
2023-04-24T04:25:22.018Z,99.90
2023-04-24T04:27:49.660Z,99.90
2023-04-24T04:30:16.951Z,99.90
2023-04-24T04:32:44.054Z,99.90
2023-04-24T04:35:11.873Z,99.90
2023-04-24T04:37:39.256Z,99.90
2023-04-24T04:40:07.934Z,99.90
2023-04-24T04:42:35.245Z,99.90
2023-04-24T04:45:03.201Z,99.90
2023-04-24T04:47:33.726Z,99.90
2023-04-24T04:50:00.892Z,99.90
2023-04-24T04:52:28.361Z,99.90
2023-04-24T04:54:55.720Z,99.90
2023-04-24T04:57:22.991Z,99.90
2023-04-24T04:59:50.390Z,99.90
2023-04-24T05:02:17.886Z,99.90
2023-04-24T05:04:47.208Z,99.90
2023-04-24T05:07:14.790Z,99.90
2023-04-24T05:09:42.210Z,99.90
2023-04-24T05:12:09.652Z,99.90
2023-04-24T05:14:36.849Z,99.90
2023-04-24T05:17:04.298Z,99.90
2023-04-24T05:19:34.005Z,99.90
2023-04-24T05:22:04.235Z,99.90
2023-04-24T05:24:31.404Z,99.90
2023-04-24T05:26:59.868Z,99.90
2023-04-24T05:29:31.875Z,99.90
2023-04-24T05:31:59.323Z,99.90
2023-04-24T05:34:26.670Z,99.90
2023-04-24T05:36:54.386Z,99.90
2023-04-24T05:39:21.586Z,99.90
2023-04-24T05:41:48.768Z,99.90
2023-04-24T05:44:16.074Z,99.90
2023-04-24T05:46:43.219Z,99.90
2023-04-24T05:49:10.329Z,99.90
2023-04-24T05:51:37.515Z,99.90
2023-04-24T05:54:04.656Z,99.90
2023-04-24T05:56:32.193Z,99.90
2023-04-24T05:58:59.489Z,99.90
2023-04-24T06:01:26.566Z,99.90
2023-04-24T06:03:54.602Z,99.90
2023-04-24T06:06:22.037Z,99.90
2023-04-24T06:08:49.246Z,99.90
2023-04-24T06:11:16.970Z,99.90
2023-04-24T06:13:44.059Z,99.90
2023-04-24T06:16:12.100Z,99.90
2023-04-24T06:18:39.330Z,99.90
2023-04-24T06:21:06.508Z,99.90
2023-04-24T06:23:34.097Z,99.90
2023-04-24T06:26:01.648Z,99.90
2023-04-24T06:28:28.862Z,99.90
2023-04-24T06:30:55.977Z,99.90
2023-04-24T06:33:23.903Z,99.90
2023-04-24T06:35:51.259Z,99.90
2023-04-24T06:38:18.454Z,99.90
2023-04-24T06:40:46.372Z,99.90
2023-04-24T06:43:13.562Z,99.90
2023-04-24T06:45:41.023Z,99.90
2023-04-24T06:48:08.387Z,99.90
2023-04-24T06:50:35.658Z,99.90
2023-04-24T06:53:02.717Z,99.90
2023-04-24T06:55:29.881Z,99.90
2023-04-24T06:57:57.160Z,99.90
2023-04-24T07:00:25.429Z,99.90
2023-04-24T07:02:52.777Z,99.90
2023-04-24T07:05:21.079Z,99.90
2023-04-24T07:07:50.054Z,99.90
2023-04-24T07:10:17.425Z,99.90
2023-04-24T07:12:44.489Z,99.90
2023-04-24T07:15:11.818Z,99.90
2023-04-24T07:17:39.713Z,99.90
2023-04-24T07:20:10.431Z,99.90
2023-04-24T07:22:38.704Z,99.90
2023-04-24T07:25:06.280Z,99.90
2023-04-24T07:27:33.520Z,99.90
2023-04-24T07:30:00.652Z,99.90
2023-04-24T07:32:28.201Z,99.90
2023-04-24T07:34:55.351Z,99.90
2023-04-24T07:37:22.856Z,99.90
2023-04-24T07:39:50.039Z,99.90
2023-04-24T07:42:17.335Z,99.90
2023-04-24T07:44:44.552Z,99.90
2023-04-24T07:47:11.777Z,99.90
2023-04-24T07:49:39.423Z,99.90
2023-04-24T07:52:06.680Z,99.90
2023-04-24T07:54:33.908Z,99.90
2023-04-24T07:57:01.855Z,99.90
2023-04-24T07:59:29.056Z,99.90
2023-04-24T08:01:56.737Z,99.90
2023-04-24T08:04:24.204Z,99.90
2023-04-24T08:06:51.486Z,99.90
2023-04-24T08:09:18.661Z,99.90
2023-04-24T08:11:46.173Z,99.90
2023-04-24T08:14:14.474Z,99.90
2023-04-24T08:16:41.895Z,99.90
2023-04-24T08:19:09.265Z,99.90
2023-04-24T08:21:36.474Z,99.90
2023-04-24T08:24:06.260Z,99.90
2023-04-24T08:26:33.570Z,99.90
2023-04-24T08:29:00.693Z,99.90
2023-04-24T08:31:28.136Z,99.90
2023-04-24T08:33:55.257Z,99.90
2023-04-24T08:36:26.500Z,99.90
2023-04-24T08:39:00.260Z,99.90
2023-04-24T08:41:28.794Z,99.90
2023-04-24T08:43:59.156Z,99.90
2023-04-24T08:46:27.031Z,99.90
2023-04-24T08:48:54.539Z,99.90
2023-04-24T08:51:22.542Z,99.90
2023-04-24T08:53:50.538Z,99.90
2023-04-24T08:56:18.328Z,99.90
2023-04-24T08:58:45.611Z,99.90
2023-04-24T09:01:13.479Z,99.90
2023-04-24T09:03:41.927Z,99.90
2023-04-24T09:06:11.806Z,99.90
2023-04-24T09:08:42.185Z,99.90
2023-04-24T09:11:10.243Z,99.90
2023-04-24T09:13:37.746Z,99.90
2023-04-24T09:16:05.490Z,99.90
2023-04-24T09:18:33.945Z,99.90
2023-04-24T09:21:08.021Z,99.90
2023-04-24T09:23:35.205Z,99.60
2023-04-24T09:26:06.050Z,99.10
2023-04-24T09:28:41.336Z,99.70
2023-04-24T09:31:15.861Z,99.90
2023-04-24T09:34:06.480Z,99.80
2023-04-24T09:36:42.566Z,99.90
2023-04-24T09:39:16.857Z,99.90
2023-04-24T09:41:48.120Z,99.90
2023-04-24T09:44:17.747Z,99.90
2023-04-24T09:46:50.782Z,99.90
2023-04-24T09:49:22.810Z,99.90
2023-04-24T09:51:50.066Z,99.90
2023-04-24T09:54:26.013Z,99.90
2023-04-24T09:56:53.125Z,99.90
2023-04-24T09:59:21.482Z,98.50
2023-04-24T10:01:50.377Z,98.30
2023-04-24T10:04:19.522Z,97.80
2023-04-24T10:06:49.930Z,97.30
2023-04-24T10:09:22.862Z,97.50
2023-04-24T10:11:52.270Z,99.30
2023-04-24T10:14:22.001Z,99.00
2023-04-24T10:16:49.963Z,98.20
2023-04-24T10:19:19.679Z,98.80
2023-04-24T10:21:48.096Z,99.10
2023-04-24T10:24:17.317Z,97.50
2023-04-24T10:26:45.823Z,95.50
2023-04-24T10:29:14.294Z,96.00
2023-04-24T10:31:41.691Z,96.50
2023-04-24T10:34:10.710Z,96.10
2023-04-24T10:36:42.641Z,95.50
2023-04-24T10:39:12.574Z,95.70
2023-04-24T10:41:39.961Z,96.50
2023-04-24T10:44:11.070Z,94.30
2023-04-24T10:46:39.502Z,95.10
2023-04-24T10:49:09.784Z,95.50
2023-04-24T10:51:54.513Z,95.80
2023-04-24T10:54:24.761Z,95.90
2023-04-24T10:56:52.987Z,96.30
2023-04-24T10:59:27.690Z,96.60
2023-04-24T11:01:58.800Z,97.50
2023-04-24T11:04:36.217Z,97.90
2023-04-24T11:07:04.671Z,97.60
2023-04-24T11:09:32.914Z,97.90
2023-04-24T11:12:14.146Z,98.50
2023-04-24T11:15:02.444Z,98.70
2023-04-24T11:17:39.339Z,98.30
2023-04-24T11:20:26.724Z,97.80
2023-04-24T11:22:56.527Z,98.10
2023-04-24T11:25:23.976Z,98.20
2023-04-24T11:27:51.694Z,98.40
2023-04-24T11:30:20.468Z,98.40
2023-04-24T11:32:51.423Z,98.00
2023-04-24T11:35:26.120Z,97.30
2023-04-24T11:40:26.603Z,97.30
2023-04-24T11:42:56.747Z,98.30
2023-04-24T11:45:26.206Z,98.10
2023-04-24T11:47:53.444Z,97.60
2023-04-24T11:50:23.664Z,98.60
2023-04-24T11:52:51.628Z,98.50
2023-04-24T11:55:19.818Z,98.60
2023-04-24T11:57:51.627Z,97.60
2023-04-24T12:00:32.863Z,97.50
2023-04-24T12:03:11.130Z,98.50
2023-04-24T12:05:39.719Z,97.70
2023-04-24T12:08:07.637Z,98.20
2023-04-24T12:10:36.056Z,97.80
2023-04-24T12:13:03.506Z,98.60
2023-04-24T12:15:30.889Z,97.40
2023-04-24T12:17:58.267Z,98.10
2023-04-24T12:20:30.752Z,98.70
2023-04-24T12:23:00.253Z,98.10
2023-04-24T12:25:32.890Z,99.00
2023-04-24T12:28:06.180Z,99.10
2023-04-24T12:30:35.640Z,99.20
2023-04-24T12:33:05.002Z,98.80
2023-04-24T12:35:35.128Z,97.80
2023-04-24T12:38:15.733Z,98.40
2023-04-24T12:40:44.176Z,98.50
2023-04-24T12:43:20.574Z,98.90
2023-04-24T12:45:49.113Z,99.40
2023-04-24T12:48:16.402Z,99.90
2023-04-24T12:50:46.433Z,99.60
2023-04-24T12:53:15.168Z,98.60
2023-04-24T12:55:42.539Z,98.50
2023-04-24T12:58:09.885Z,99.90
2023-04-24T13:00:37.503Z,99.10
2023-04-24T13:03:04.967Z,99.80
2023-04-24T13:05:32.376Z,99.40
2023-04-24T13:07:59.530Z,99.90
2023-04-24T13:10:26.805Z,97.70
2023-04-24T13:12:53.863Z,98.90
2023-04-24T13:15:21.160Z,98.80
2023-04-24T13:17:48.336Z,97.20
2023-04-24T13:20:15.599Z,97.60
2023-04-24T13:22:42.666Z,99.30
2023-04-24T13:25:10.368Z,97.60
2023-04-24T13:27:39.991Z,97.10
2023-04-24T13:30:08.006Z,97.50
2023-04-24T13:32:36.544Z,97.70
2023-04-24T13:35:03.922Z,95.80
2023-04-24T13:37:31.081Z,97.30
2023-04-24T13:39:58.146Z,96.70
2023-04-24T13:42:25.255Z,97.50
2023-04-24T13:44:52.907Z,96.50
2023-04-24T13:47:20.017Z,97.20
2023-04-24T13:49:47.248Z,97.10
2023-04-24T13:52:15.074Z,97.20
2023-04-24T13:54:42.182Z,97.80
2023-04-24T13:57:09.398Z,97.10
2023-04-24T13:59:38.552Z,97.00
2023-04-24T14:02:06.021Z,96.80
2023-04-24T14:04:33.584Z,96.50
2023-04-24T14:07:00.908Z,96.90
2023-04-24T14:09:28.380Z,95.80
2023-04-24T14:11:55.575Z,96.30
2023-04-24T14:14:22.866Z,95.70
2023-04-24T14:16:50.388Z,96.60
2023-04-24T14:19:17.687Z,95.50
2023-04-24T14:21:44.882Z,96.80
2023-04-24T14:24:12.268Z,96.20
2023-04-24T14:26:39.420Z,96.60
2023-04-24T14:29:14.213Z,96.50
2023-04-24T14:31:43.525Z,96.50
2023-04-24T14:34:11.137Z,97.00
2023-04-24T14:36:38.834Z,97.10
2023-04-24T14:39:08.364Z,96.80
2023-04-24T14:41:37.080Z,97.10
2023-04-24T14:44:05.121Z,97.20
2023-04-24T14:46:32.712Z,97.20
2023-04-24T14:49:00.117Z,97.00
2023-04-24T14:51:27.997Z,97.00
2023-04-24T14:53:55.445Z,96.70
2023-04-24T14:56:22.533Z,97.30
2023-04-24T14:58:49.965Z,97.80
2023-04-24T15:01:18.092Z,97.10
2023-04-24T15:03:46.139Z,97.50
2023-04-24T15:06:13.776Z,97.10
2023-04-24T15:08:41.060Z,96.90
2023-04-24T15:11:08.223Z,96.90
2023-04-24T15:13:35.513Z,96.70
2023-04-24T15:16:03.294Z,97.20
2023-04-24T15:18:30.607Z,97.40
2023-04-24T15:20:58.433Z,97.50
2023-04-24T15:23:25.631Z,97.00
2023-04-24T15:25:52.904Z,97.60
2023-04-24T15:28:20.256Z,97.50
2023-04-24T15:30:47.439Z,97.50
2023-04-24T15:33:14.881Z,97.60
2023-04-24T15:35:42.022Z,97.10
2023-04-24T15:38:09.577Z,97.30
2023-04-24T15:40:36.958Z,97.60
2023-04-24T15:43:04.301Z,96.80
2023-04-24T15:45:31.699Z,96.70
2023-04-24T15:47:58.947Z,97.20
2023-04-24T15:50:27.601Z,97.10
2023-04-24T15:52:54.821Z,98.10
2023-04-24T15:55:22.091Z,97.40
2023-04-24T15:57:49.890Z,97.60
2023-04-24T16:00:18.342Z,97.70
2023-04-24T16:02:46.251Z,97.40
2023-04-24T16:05:13.962Z,97.20
2023-04-24T16:07:41.369Z,98.20
2023-04-24T16:10:09.151Z,96.90
2023-04-24T16:12:36.671Z,97.00
2023-04-24T16:15:04.592Z,97.70
2023-04-24T16:17:31.896Z,97.90
2023-04-24T16:19:59.024Z,97.20
2023-04-24T16:22:26.456Z,96.90
2023-04-24T16:24:53.614Z,97.40
2023-04-24T16:27:20.914Z,97.10
2023-04-24T16:29:48.015Z,96.50
2023-04-24T16:32:15.100Z,96.40
2023-04-24T16:34:42.252Z,96.80
2023-04-24T16:37:09.479Z,97.80
2023-04-24T16:39:37.197Z,97.70
2023-04-24T16:42:04.647Z,97.90
2023-04-24T16:44:32.136Z,97.40
2023-04-24T16:46:59.515Z,97.40
2023-04-24T16:49:31.143Z,97.30
2023-04-24T16:51:58.727Z,97.00
2023-04-24T16:54:26.319Z,96.50
2023-04-24T16:56:54.573Z,96.20
2023-04-24T16:59:22.143Z,96.30
2023-04-24T17:01:50.002Z,95.80
2023-04-24T17:04:17.575Z,96.20
2023-04-24T17:06:45.297Z,96.60
2023-04-24T17:09:15.952Z,96.10
2023-04-24T17:11:43.419Z,96.70
2023-04-24T17:14:10.815Z,97.20
2023-04-24T17:16:38.523Z,96.80
2023-04-24T17:19:06.457Z,96.30
2023-04-24T17:21:34.377Z,96.00
2023-04-24T17:24:01.896Z,96.40
2023-04-24T17:26:32.370Z,96.20
2023-04-24T17:28:59.820Z,96.50
2023-04-24T17:31:27.289Z,96.00
2023-04-24T17:33:54.713Z,96.60
2023-04-24T17:36:21.989Z,96.50
2023-04-24T17:38:49.786Z,96.90
2023-04-24T17:41:17.375Z,97.60
2023-04-24T17:43:45.851Z,97.30
2023-04-24T17:46:14.074Z,97.70
2023-04-24T17:48:41.560Z,98.30
2023-04-24T17:51:08.881Z,98.20
2023-04-24T17:53:35.995Z,98.10
2023-04-24T17:56:04.134Z,98.40
2023-04-24T17:58:31.728Z,98.80
2023-04-24T18:00:59.410Z,99.00
2023-04-24T18:03:26.825Z,99.30
2023-04-24T18:05:54.638Z,99.70
2023-04-24T18:08:22.019Z,99.20
2023-04-24T18:10:49.685Z,99.90
2023-04-24T18:13:16.983Z,99.70
2023-04-24T18:15:44.252Z,99.90
2023-04-24T18:18:12.071Z,99.90
2023-04-24T18:20:39.852Z,99.90
2023-04-24T18:23:07.184Z,99.90
2023-04-24T18:25:34.672Z,99.90
2023-04-24T18:28:02.150Z,99.90
2023-04-24T18:30:31.275Z,99.90
2023-04-24T18:32:58.929Z,99.90
2023-04-24T18:35:26.337Z,99.90
2023-04-24T18:37:53.783Z,99.90
2023-04-24T18:40:21.094Z,99.90
2023-04-24T18:42:48.601Z,99.90
2023-04-24T18:45:15.952Z,99.90
2023-04-24T18:47:43.852Z,99.90
2023-04-24T18:50:12.062Z,99.90
2023-04-24T18:52:39.360Z,99.90
2023-04-24T18:55:07.283Z,99.90
2023-04-24T18:57:35.017Z,99.90
2023-04-24T19:00:02.474Z,99.90
2023-04-24T19:02:29.788Z,99.90
2023-04-24T19:04:57.018Z,99.90
2023-04-24T19:07:24.758Z,99.90
2023-04-24T19:09:52.385Z,99.90
2023-04-24T19:12:20.996Z,99.90
2023-04-24T19:14:51.756Z,99.90
2023-04-24T19:17:24.435Z,99.90
2023-04-24T19:19:52.354Z,99.90
2023-04-24T19:22:20.771Z,99.90
2023-04-24T19:24:48.052Z,99.90
2023-04-24T19:27:15.722Z,99.90
2023-04-24T19:29:43.083Z,99.90
2023-04-24T19:32:10.488Z,99.90
2023-04-24T19:34:39.860Z,99.90
2023-04-24T19:37:08.286Z,99.90
2023-04-24T19:39:35.872Z,99.90
2023-04-24T19:42:07.346Z,99.90
2023-04-24T19:44:34.882Z,99.90
2023-04-24T19:47:02.220Z,99.90
2023-04-24T19:49:29.483Z,99.90
2023-04-24T19:51:56.661Z,99.90
2023-04-24T19:54:24.403Z,99.90
2023-04-24T19:56:51.591Z,99.90
2023-04-24T19:59:19.307Z,99.90
2023-04-24T20:01:47.267Z,99.90
2023-04-24T20:04:15.350Z,99.90
2023-04-24T20:06:42.698Z,99.90
2023-04-24T20:09:10.113Z,99.90
2023-04-24T20:11:37.227Z,99.90
2023-04-24T20:14:04.545Z,99.90
2023-04-24T20:16:31.987Z,99.90
2023-04-24T20:18:59.866Z,99.90
2023-04-24T20:21:27.963Z,99.90
2023-04-24T20:23:55.402Z,99.90
2023-04-24T20:26:22.661Z,99.90
2023-04-24T20:28:50.299Z,99.90
2023-04-24T20:31:18.162Z,99.90
2023-04-24T20:33:45.736Z,99.90
2023-04-24T20:36:12.850Z,99.90
2023-04-24T20:38:40.137Z,99.90
2023-04-24T20:41:08.931Z,99.90
2023-04-24T20:43:36.408Z,99.90
2023-04-24T20:46:03.615Z,99.90
2023-04-24T20:48:31.064Z,99.90
2023-04-24T20:50:58.271Z,99.90
2023-04-24T20:53:25.367Z,99.90
2023-04-24T20:55:52.528Z,99.90
2023-04-24T20:58:21.072Z,99.90
2023-04-24T21:00:48.541Z,99.90
2023-04-24T21:03:16.203Z,99.90
2023-04-24T21:05:43.682Z,99.90
2023-04-24T21:08:11.797Z,99.90
2023-04-24T21:10:39.262Z,99.90
2023-04-24T21:13:06.489Z,99.90
2023-04-24T21:15:34.174Z,99.90
2023-04-24T21:18:02.286Z,99.90
2023-04-24T21:20:31.164Z,99.90
2023-04-24T21:22:58.125Z,99.90
2023-04-24T21:25:25.285Z,99.90
2023-04-24T21:27:53.267Z,99.90
2023-04-24T21:30:22.273Z,99.90
2023-04-24T21:32:49.685Z,99.90
2023-04-24T21:35:16.879Z,99.90
2023-04-24T21:37:44.000Z,99.90
2023-04-24T21:40:11.559Z,99.90
2023-04-24T21:42:41.063Z,99.90
2023-04-24T21:45:08.869Z,99.90
2023-04-24T21:47:36.424Z,99.90
2023-04-24T21:50:05.333Z,99.90
2023-04-24T21:52:32.467Z,99.90
2023-04-24T21:54:59.502Z,99.90
2023-04-24T21:57:26.728Z,99.90
2023-04-24T21:59:53.998Z,99.90
2023-04-24T22:02:21.579Z,99.90
2023-04-24T22:04:50.548Z,99.90
2023-04-24T22:07:17.961Z,99.90
2023-04-24T22:09:45.160Z,99.90
2023-04-24T22:12:12.379Z,99.90
2023-04-24T22:14:39.606Z,99.90
2023-04-24T22:17:07.383Z,99.90
2023-04-24T22:19:34.467Z,99.90
2023-04-24T22:22:01.726Z,99.90
2023-04-24T22:24:28.941Z,99.90
2023-04-24T22:26:56.314Z,99.90
2023-04-24T22:29:23.515Z,99.90
2023-04-24T22:31:50.778Z,99.90
2023-04-24T22:34:18.523Z,99.90
2023-04-24T22:36:45.648Z,99.90
2023-04-24T22:39:15.880Z,99.90
2023-04-24T22:41:43.502Z,99.90
2023-04-24T22:44:11.474Z,99.90
2023-04-24T22:46:38.716Z,99.90
2023-04-24T22:49:06.023Z,99.90
2023-04-24T22:51:36.270Z,99.90
2023-04-24T22:54:04.565Z,99.90
2023-04-24T22:56:32.195Z,99.90
2023-04-24T22:58:59.772Z,99.90
2023-04-24T23:01:30.127Z,99.90
2023-04-24T23:03:57.444Z,99.90
2023-04-24T23:06:24.969Z,99.90
2023-04-24T23:08:52.184Z,99.90
2023-04-24T23:11:20.179Z,99.90
2023-04-24T23:13:47.828Z,99.90
2023-04-24T23:16:16.242Z,99.90
2023-04-24T23:18:43.668Z,99.90
2023-04-24T23:21:10.852Z,99.90
2023-04-24T23:23:38.224Z,99.90
2023-04-24T23:26:05.526Z,99.90
2023-04-24T23:28:33.018Z,99.90
2023-04-24T23:31:00.134Z,99.90
2023-04-24T23:33:28.494Z,99.90
2023-04-24T23:35:56.013Z,99.90
2023-04-24T23:38:23.274Z,99.90
2023-04-24T23:40:53.200Z,99.90
2023-04-24T23:43:20.310Z,99.90
2023-04-24T23:45:47.402Z,99.90
2023-04-24T23:48:14.587Z,99.90
2023-04-24T23:50:41.905Z,99.90
2023-04-24T23:53:09.644Z,99.90
2023-04-24T23:55:37.558Z,99.90
2023-04-24T23:58:04.741Z,99.90
